Time;durP1;ratioP1;P1;durP2;ratioP2;P2;SDS_P1;SDS_P2;PMS_P1;PMS_P2;Temp;Humidity;BMP_temperature;BMP_pressure;BME280_temperature;BME280_humidity;BME280_pressure;Samples;Min_cycle;Max_cycle;Signal;HPM_P1;HPM_P2
2022/11/08 00:03:28;;;;;;;0.05;0.05;;;;;;;13.21;62.17;98028.84;7360906;19;20019;-58
2022/11/08 00:14:07;;;;;;;0.00;0.00;;;;;;;13.11;62.20;98043.59;7361785;19;20025;-58
2022/11/08 00:16:32;;;;;;;0.00;0.00;;;;;;;13.09;62.01;98046.34;7361120;19;25084;-58
2022/11/08 00:18:57;;;;;;;0.00;0.00;;;;;;;13.08;62.53;98044.66;7360850;19;20046;-56
2022/11/08 00:21:23;;;;;;;0.00;0.00;;;;;;;12.94;62.36;98037.84;7361576;19;20037;-59
2022/11/08 00:23:48;;;;;;;0.00;0.00;;;;;;;13.02;62.27;98039.88;7360726;19;20028;-58
2022/11/08 00:26:14;;;;;;;0.00;0.00;;;;;;;13.00;62.53;98041.78;7358508;19;20018;-58
2022/11/08 00:28:39;;;;;;;0.00;0.00;;;;;;;12.96;62.15;98042.94;7358763;19;20010;-57
2022/11/08 00:31:08;;;;;;;0.00;0.00;;;;;;;12.87;62.31;98046.25;7361458;19;20074;-57
2022/11/08 00:33:33;;;;;;;0.00;0.00;;;;;;;12.95;62.59;98065.69;7359981;19;20843;-59
2022/11/08 00:35:59;;;;;;;0.00;0.00;;;;;;;12.93;62.75;98061.53;7360790;19;20021;-58
2022/11/08 00:38:25;;;;;;;0.00;0.00;;;;;;;12.89;62.58;98075.81;7361780;19;20018;-58
2022/11/08 00:40:50;;;;;;;0.00;0.00;;;;;;;12.88;63.02;98076.75;7362965;19;21408;-57
2022/11/08 00:43:16;;;;;;;0.00;0.00;;;;;;;12.88;62.84;98079.38;7360454;19;20018;-58
2022/11/08 00:45:41;;;;;;;0.00;0.00;;;;;;;12.87;62.60;98085.53;7358167;19;20094;-58
2022/11/08 00:48:06;;;;;;;0.00;0.00;;;;;;;12.78;62.56;98083.63;7362920;19;20395;-58
2022/11/08 00:50:32;;;;;;;0.00;0.00;;;;;;;12.82;62.99;98075.41;7361938;19;20006;-59
2022/11/08 00:52:57;;;;;;;0.00;0.00;;;;;;;12.81;63.03;98081.59;7363616;19;20366;-58
2022/11/08 00:55:22;;;;;;;0.00;0.00;;;;;;;12.79;62.66;98080.06;7361687;19;20014;-58
2022/11/08 00:57:48;;;;;;;0.10;0.10;;;;;;;12.80;63.22;98077.31;7363535;19;20002;-58
2022/11/08 01:00:13;;;;;;;0.08;0.08;;;;;;;12.78;62.96;98075.75;7363192;19;20419;-58
2022/11/08 01:02:39;;;;;;;0.08;0.08;;;;;;;12.69;62.76;98072.88;7361362;19;19999;-59
2022/11/08 01:05:05;;;;;;;0.10;0.10;;;;;;;12.72;62.98;98082.25;7361460;19;20458;-58
2022/11/08 01:07:30;;;;;;;0.08;0.08;;;;;;;12.79;62.82;98088.75;7361680;19;20021;-58
2022/11/08 01:09:55;;;;;;;0.05;0.05;;;;;;;12.80;63.20;98087.78;7361502;19;20097;-58
2022/11/08 01:12:21;;;;;;;0.10;0.10;;;;;;;12.80;62.92;98095.63;7362420;19;20708;-58
2022/11/08 01:14:46;;;;;;;0.10;0.10;;;;;;;12.79;63.55;98085.28;7360613;19;20007;-59
2022/11/08 01:17:12;;;;;;;0.10;0.10;;;;;;;12.79;62.89;98086.13;7361817;19;20126;-58
2022/11/08 01:19:37;;;;;;;0.10;0.10;;;;;;;12.78;63.13;98078.38;7361095;19;20002;-58
2022/11/08 01:22:02;;;;;;;0.00;0.00;;;;;;;12.75;63.13;98079.44;7362460;19;20113;-58
2022/11/08 01:24:28;;;;;;;0.00;0.00;;;;;;;12.73;63.30;98086.56;7361816;19;20034;-59
2022/11/08 01:26:53;;;;;;;0.00;0.00;;;;;;;12.72;63.22;98083.13;7359660;19;20018;-58
2022/11/08 01:29:18;;;;;;;0.00;0.00;;;;;;;12.70;63.23;98079.75;7361854;19;20010;-57
2022/11/08 01:31:44;;;;;;;0.00;0.00;;;;;;;12.69;63.12;98080.72;7359812;19;20026;-56
2022/11/08 01:34:09;;;;;;;0.00;0.00;;;;;;;12.67;63.53;98081.75;7363295;19;20031;-58
2022/11/08 01:36:35;;;;;;;0.10;0.10;;;;;;;12.64;63.40;98082.00;7359387;19;20022;-58
2022/11/08 01:39:01;;;;;;;0.00;0.00;;;;;;;12.63;63.71;98085.56;7361561;19;20023;-58
2022/11/08 01:41:26;;;;;;;0.10;0.10;;;;;;;12.62;63.15;98084.75;7367025;19;21536;-58
2022/11/08 01:43:58;;;;;;;0.00;0.00;;;;;;;12.62;63.39;98084.75;7368145;19;20014;-58
2022/11/08 01:46:37;;;;;;;0.10;0.10;;;;;;;12.58;63.25;98080.66;7368407;19;20014;-58
2022/11/08 01:49:24;;;;;;;0.00;0.00;;;;;;;12.58;62.78;98085.91;7367042;19;20814;-59
2022/11/08 01:52:00;;;;;;;0.10;0.10;;;;;;;12.56;63.01;98090.41;7367434;19;20014;-56
2022/11/08 01:54:57;;;;;;;0.00;0.00;;;;;;;12.54;63.08;98084.44;7368665;19;20019;-58
2022/11/08 01:57:40;;;;;;;0.00;0.00;;;;;;;12.52;62.76;98086.34;7263233;19;2004110;-59
2022/11/08 02:00:09;;;;;;;0.00;0.00;;;;;;;12.48;62.36;98092.75;7366330;19;20011;-59
2022/11/08 02:02:37;;;;;;;0.00;0.00;;;;;;;12.46;62.55;98089.41;7365570;19;20058;-59
2022/11/08 02:05:06;;;;;;;0.08;0.08;;;;;;;12.41;63.40;98081.88;7365746;19;20010;-58
2022/11/08 02:07:33;;;;;;;0.00;0.00;;;;;;;12.41;62.52;98078.41;7367516;19;20025;-58
2022/11/08 02:09:59;;;;;;;0.00;0.00;;;;;;;12.37;62.76;98080.44;7366436;19;20018;-58
2022/11/08 02:12:26;;;;;;;0.00;0.00;;;;;;;12.37;63.08;98079.59;7365995;19;20082;-57
2022/11/08 02:14:52;;;;;;;0.00;0.00;;;;;;;12.35;63.06;98084.09;7365455;19;20006;-56
2022/11/08 02:17:17;;;;;;;0.00;0.00;;;;;;;12.34;63.01;98079.81;7367969;19;20015;-57
2022/11/08 02:19:46;;;;;;;0.00;0.00;;;;;;;12.33;62.87;98078.16;7365372;19;20010;-58
2022/11/08 02:22:27;;;;;;;0.00;0.00;;;;;;;12.33;63.01;98078.16;7363682;19;20033;-58
2022/11/08 02:24:53;;;;;;;0.00;0.00;;;;;;;12.28;62.72;98077.66;7362649;19;20051;-58
2022/11/08 02:27:19;;;;;;;0.00;0.00;;;;;;;12.25;62.67;98075.25;7365710;19;20022;-58
2022/11/08 02:29:44;;;;;;;0.00;0.00;;;;;;;12.21;63.04;98069.38;7366477;19;20014;-58
2022/11/08 02:32:11;;;;;;;0.00;0.00;;;;;;;12.22;63.01;98083.31;7365836;19;20006;-58
2022/11/08 02:34:41;;;;;;;0.00;0.00;;;;;;;12.21;63.32;98082.47;7367219;19;20045;-58
2022/11/08 02:37:07;;;;;;;0.10;0.10;;;;;;;12.10;63.16;98072.75;7364651;19;20583;-58
2022/11/08 02:39:33;;;;;;;0.00;0.00;;;;;;;12.10;63.55;98077.16;7364785;19;20022;-58
2022/11/08 02:41:59;;;;;;;0.00;0.00;;;;;;;12.12;63.01;98076.13;7365625;19;20013;-58
2022/11/08 02:44:25;;;;;;;0.03;0.03;;;;;;;12.11;63.59;98074.44;7366386;19;20045;-58
2022/11/08 02:46:50;;;;;;;0.00;0.00;;;;;;;12.07;63.84;98073.00;7369404;19;20458;-58
2022/11/08 02:49:15;;;;;;;0.00;0.00;;;;;;;12.08;63.98;98063.38;7364813;19;20048;-58
2022/11/08 02:51:41;;;;;;;0.00;0.00;;;;;;;12.06;63.33;98068.69;7366236;19;20343;-58
2022/11/08 02:54:06;;;;;;;0.00;0.00;;;;;;;12.05;63.68;98053.94;7364550;19;20025;-58
2022/11/08 02:56:32;;;;;;;0.00;0.00;;;;;;;12.05;63.96;98058.34;7366524;19;20018;-56
2022/11/08 02:58:57;;;;;;;0.00;0.00;;;;;;;12.04;64.31;98056.69;7355276;19;20015;-58
2022/11/08 03:01:23;;;;;;;0.10;0.10;;;;;;;12.03;64.11;98053.22;7361234;19;20832;-58
2022/11/08 03:03:48;;;;;;;0.00;0.00;;;;;;;12.02;63.84;98059.41;7364396;19;20104;-58
2022/11/08 03:06:13;;;;;;;0.00;0.00;;;;;;;12.00;64.10;98055.22;7362693;19;20046;-59
2022/11/08 03:08:39;;;;;;;0.00;0.00;;;;;;;12.01;64.27;98056.88;7365317;19;20517;-57
2022/11/08 03:11:04;;;;;;;0.00;0.00;;;;;;;12.00;64.43;98058.66;7361497;19;20021;-58
2022/11/08 03:13:30;;;;;;;0.00;0.00;;;;;;;11.95;64.13;98048.53;7362965;19;20014;-58
2022/11/08 03:15:55;;;;;;;0.00;0.00;;;;;;;11.98;64.32;98047.50;7362713;19;20011;-58
2022/11/08 03:18:21;;;;;;;0.10;0.10;;;;;;;11.98;64.11;98047.50;7363464;19;20056;-58
2022/11/08 03:20:46;;;;;;;0.10;0.10;;;;;;;11.98;64.55;98047.50;7360598;19;20018;-56
2022/11/08 03:23:11;;;;;;;0.00;0.00;;;;;;;11.98;64.33;98042.25;7361981;19;20006;-58
2022/11/08 03:25:37;;;;;;;0.00;0.00;;;;;;;11.98;65.01;98042.25;7364163;19;20082;-57
2022/11/08 03:28:07;;;;;;;0.00;0.00;;;;;;;11.91;64.84;98025.31;7363895;19;20018;-58
2022/11/08 03:30:33;;;;;;;0.10;0.10;;;;;;;11.88;65.24;98015.09;7365340;19;20043;-58
2022/11/08 03:32:59;;;;;;;0.00;0.00;;;;;;;11.95;65.48;98032.00;7362843;19;20022;-57
2022/11/08 03:35:25;;;;;;;0.00;0.00;;;;;;;11.96;64.58;98028.44;7363907;19;20014;-57
2022/11/08 03:37:51;;;;;;;0.00;0.00;;;;;;;11.96;65.05;98025.81;7362641;19;20466;-58
2022/11/08 03:40:17;;;;;;;0.10;0.10;;;;;;;11.94;65.06;98019.88;7364212;19;20479;-58
2022/11/08 03:42:43;;;;;;;0.00;0.00;;;;;;;11.89;65.54;98009.75;7362998;19;20065;-58
2022/11/08 03:45:10;;;;;;;0.10;0.10;;;;;;;11.93;65.87;98015.59;7362689;19;21340;-58
2022/11/08 03:47:42;;;;;;;0.00;0.00;;;;;;;11.93;65.82;98008.59;7362586;19;20654;-58
2022/11/08 03:50:09;;;;;;;0.10;0.10;;;;;;;11.90;66.09;98008.78;7362361;19;20054;-58
2022/11/08 03:52:49;;;;;;;0.00;0.00;;;;;;;11.93;65.26;98007.75;7364123;19;20030;-58
2022/11/08 03:55:16;;;;;;;0.05;0.05;;;;;;;11.89;65.95;97995.84;7363481;19;20033;-58
2022/11/08 03:57:43;;;;;;;0.00;0.00;;;;;;;11.88;66.11;97994.16;7361806;19;20018;-58
2022/11/08 04:00:10;;;;;;;0.00;0.00;;;;;;;11.86;65.62;97998.66;7361901;19;20011;-58
2022/11/08 04:02:36;;;;;;;0.10;0.10;;;;;;;11.84;65.98;97992.72;7360412;19;20018;-58
2022/11/08 04:05:02;;;;;;;0.00;0.00;;;;;;;11.83;66.40;97998.88;7355504;19;20002;-58
2022/11/08 04:07:27;;;;;;;0.00;0.00;;;;;;;11.80;66.76;97981.59;7362961;19;20025;-58
2022/11/08 04:09:56;;;;;;;0.03;0.03;;;;;;;11.81;66.93;97977.19;7364163;19;20021;-58
2022/11/08 04:15:15;;;;;;;0.00;0.00;;;;;;;11.76;66.87;97969.72;7360722;19;20025;-58
2022/11/08 04:23:15;;;;;;;0.00;0.00;;;;;;;11.73;66.82;97961.25;7360557;19;20022;-58
2022/11/08 04:25:41;;;;;;;0.00;0.00;;;;;;;11.72;66.60;97956.97;7359747;19;20034;-56
2022/11/08 04:28:06;;;;;;;0.00;0.00;;;;;;;11.69;66.37;97956.22;7361936;19;20010;-58
2022/11/08 04:30:32;;;;;;;0.00;0.00;;;;;;;11.68;66.08;97954.56;7361327;19;20524;-57
2022/11/08 04:33:03;;;;;;;0.00;0.00;;;;;;;11.68;65.99;97951.94;7357574;19;20009;-58
2022/11/08 04:35:29;;;;;;;0.05;0.05;;;;;;;11.65;66.23;97941.69;7360533;19;20006;-57
2022/11/08 04:37:59;;;;;;;0.00;0.00;;;;;;;11.67;66.38;97947.66;7359837;19;20050;-57
2022/11/08 04:40:25;;;;;;;0.00;0.00;;;;;;;11.64;66.75;97937.41;7362542;19;20643;-58
2022/11/08 04:42:50;;;;;;;0.00;0.00;;;;;;;11.64;66.44;97932.19;7360752;19;20022;-58
2022/11/08 04:45:15;;;;;;;0.00;0.00;;;;;;;11.64;66.50;97932.19;7359980;19;20472;-58
2022/11/08 04:47:43;;;;;;;0.10;0.10;;;;;;;11.65;66.82;97939.06;7357004;19;20117;-58
2022/11/08 04:50:09;;;;;;;0.00;0.00;;;;;;;11.65;66.90;97931.22;7358964;19;20015;-57
2022/11/08 04:52:34;;;;;;;0.10;0.10;;;;;;;11.67;66.71;97924.13;7361752;19;20042;-58
2022/11/08 04:55:00;;;;;;;0.00;0.00;;;;;;;11.68;66.71;97923.19;7357871;19;20075;-58
2022/11/08 04:57:27;;;;;;;0.03;0.03;;;;;;;11.74;66.89;97926.31;7360533;19;20019;-59
2022/11/08 04:59:52;;;;;;;0.00;0.00;;;;;;;11.75;67.09;97920.13;7358551;19;20010;-58
2022/11/08 05:02:18;;;;;;;0.08;0.08;;;;;;;11.77;66.81;97916.47;7360618;19;20010;-58
2022/11/08 05:04:43;;;;;;;0.00;0.00;;;;;;;11.81;66.82;97914.44;7359290;19;20014;-58
2022/11/08 05:07:09;;;;;;;0.00;0.00;;;;;;;11.83;67.25;97912.59;7361581;19;20103;-58
2022/11/08 05:09:34;;;;;;;0.00;0.00;;;;;;;11.87;67.46;97914.88;7360083;19;20014;-57
2022/11/08 05:11:59;;;;;;;0.00;0.00;;;;;;;11.89;67.53;97904.31;7359621;19;20006;-59
2022/11/08 05:14:25;;;;;;;0.10;0.10;;;;;;;11.93;67.09;97916.22;7360890;19;20014;-56
2022/11/08 05:16:50;;;;;;;0.10;0.10;;;;;;;11.96;67.18;97905.53;7363695;19;20002;-58
2022/11/08 05:23:22;;;;;;;0.00;0.00;;;;;;;12.00;67.47;97898.28;7365247;19;20010;-57
2022/11/08 05:24:45;;;;;;;0.00;0.00;;;;;;;12.07;67.38;97884.66;7365098;19;20018;-58
2022/11/08 05:27:10;;;;;;;0.00;0.00;;;;;;;12.04;67.31;97868.34;7366500;19;20023;-58
2022/11/08 05:29:36;;;;;;;0.10;0.10;;;;;;;12.12;67.96;97851.16;7364200;19;20015;-58
2022/11/08 05:32:01;;;;;;;0.00;0.00;;;;;;;12.16;67.81;97843.88;7366609;19;20082;-58
2022/11/08 05:34:26;;;;;;;0.00;0.00;;;;;;;12.18;69.14;97861.16;7364038;19;20014;-58
2022/11/08 05:36:52;;;;;;;0.00;0.00;;;;;;;12.18;69.31;97857.72;7365538;19;20006;-59
2022/11/08 05:39:17;;;;;;;0.10;0.10;;;;;;;12.20;69.41;97864.47;7362268;19;20015;-56
2022/11/08 05:41:43;;;;;;;0.00;0.00;;;;;;;12.18;69.72;97863.78;7366044;19;20006;-58
2022/11/08 05:44:08;;;;;;;0.00;0.00;;;;;;;12.20;69.47;97866.25;7363344;19;20014;-58
2022/11/08 05:46:34;;;;;;;0.00;0.00;;;;;;;12.19;70.01;97878.50;7366892;19;20106;-58
2022/11/08 05:48:59;;;;;;;0.00;0.00;;;;;;;12.19;70.01;97865.44;7366131;19;20006;-58
2022/11/08 05:51:25;;;;;;;0.00;0.00;;;;;;;12.10;70.46;97836.50;7366635;19;20011;-58
2022/11/08 05:53:50;;;;;;;0.10;0.10;;;;;;;12.20;70.28;97861.88;7362352;19;20017;-57
2022/11/08 05:56:16;;;;;;;0.00;0.00;;;;;;;12.20;69.57;97855.81;7366833;19;20113;-56
2022/11/08 05:58:42;;;;;;;0.10;0.10;;;;;;;12.22;70.46;97846.06;7364823;19;20021;-58
2022/11/08 06:01:11;;;;;;;0.05;0.05;;;;;;;12.24;70.00;97838.94;7364870;19;20007;-58
2022/11/08 06:03:36;;;;;;;0.00;0.00;;;;;;;12.22;70.14;97829.53;7364689;19;20022;-57
2022/11/08 06:06:04;;;;;;;0.00;0.00;;;;;;;12.23;70.67;97826.81;7367198;19;20076;-58
2022/11/08 06:08:29;;;;;;;;;;;;;;;12.27;68.48;97823.00;7367008;19;20110;-56
2022/11/08 06:11:04;;;;;;;0.08;0.08;;;;;;;12.25;69.90;97829.28;7363597;19;22313;-58
2022/11/08 06:13:29;;;;;;;0.00;0.00;;;;;;;12.22;70.00;97819.91;7363666;19;20473;-59
2022/11/08 06:15:58;;;;;;;0.00;0.00;;;;;;;12.19;70.13;97818.34;7363745;19;20013;-58
2022/11/08 06:18:24;;;;;;;0.00;0.00;;;;;;;12.18;70.69;97811.44;7363413;19;20029;-58
2022/11/08 06:20:49;;;;;;;0.00;0.00;;;;;;;12.15;70.40;97811.66;7364258;19;21091;-58
2022/11/08 06:23:14;;;;;;;0.03;0.03;;;;;;;12.13;70.68;97810.97;7363846;19;20010;-58
2022/11/08 06:25:40;;;;;;;0.00;0.00;;;;;;;12.13;69.47;97810.97;7362901;19;20831;-58
2022/11/08 06:28:07;;;;;;;0.00;0.00;;;;;;;12.10;70.24;97811.19;7361673;19;20027;-58
2022/11/08 06:30:32;;;;;;;0.00;0.00;;;;;;;12.10;70.57;97790.25;7364678;19;20027;-58
2022/11/08 06:32:59;;;;;;;0.10;0.10;;;;;;;12.10;70.25;97805.94;7361101;19;20014;-58
2022/11/08 06:35:24;;;;;;;0.00;0.00;;;;;;;12.10;70.31;97805.13;7362232;19;21016;-57
2022/11/08 06:37:49;;;;;;;0.00;0.00;;;;;;;12.09;70.61;97808.69;7361556;19;20018;-58
2022/11/08 06:40:15;;;;;;;0.10;0.10;;;;;;;12.09;69.36;97799.06;7363365;19;20026;-55
2022/11/08 06:42:40;;;;;;;0.00;0.00;;;;;;;12.10;69.81;97805.13;7364073;19;20094;-58
2022/11/08 06:45:06;;;;;;;0.00;0.00;;;;;;;12.08;70.27;97797.41;7364671;19;20026;-58
2022/11/08 06:47:31;;;;;;;0.10;0.10;;;;;;;12.12;69.47;97804.06;7362552;19;20024;-58
2022/11/08 06:49:57;;;;;;;0.00;0.00;;;;;;;12.14;68.94;97803.94;7364709;19;20022;-58
2022/11/08 06:52:22;;;;;;;0.00;0.00;;;;;;;12.14;69.07;97799.53;7361661;19;20018;-58
2022/11/08 06:54:47;;;;;;;0.00;0.00;;;;;;;12.13;68.99;97784.81;7364343;19;20014;-59
2022/11/08 06:57:13;;;;;;;0.00;0.00;;;;;;;12.16;68.60;97788.97;7363375;19;20046;-58
2022/11/08 06:59:39;;;;;;;0.03;0.03;;;;;;;12.17;68.71;97795.88;7356226;19;20728;-57
2022/11/08 07:02:04;;;;;;;0.10;0.10;;;;;;;12.16;68.83;97792.41;7363253;19;20016;-58
2022/11/08 07:04:29;;;;;;;0.00;0.00;;;;;;;12.15;68.48;97788.13;7366980;19;20018;-58
2022/11/08 07:06:55;;;;;;;0.00;0.00;;;;;;;12.16;68.49;97791.56;7361296;19;20022;-58
2022/11/08 07:09:21;;;;;;;0.00;0.00;;;;;;;12.04;68.66;97785.50;7361369;19;20775;-59
2022/11/08 07:11:46;;;;;;;0.00;0.00;;;;;;;12.14;68.33;97796.94;7364280;19;20038;-58
2022/11/08 07:14:12;;;;;;;0.00;0.00;;;;;;;12.13;68.43;97779.56;7362560;19;20013;-58
2022/11/08 07:16:37;;;;;;;0.05;0.05;;;;;;;12.13;68.39;97784.81;7362636;19;20560;-58
2022/11/08 07:19:02;;;;;;;0.00;0.00;;;;;;;12.10;68.36;97779.78;7362961;19;20017;-58
2022/11/08 07:21:28;;;;;;;0.00;0.00;;;;;;;12.12;68.36;97777.91;7363462;19;20026;-58
2022/11/08 07:23:53;;;;;;;0.10;0.10;;;;;;;12.13;68.66;97778.75;7363689;19;20006;-58
2022/11/08 07:26:18;;;;;;;0.00;0.00;;;;;;;12.12;68.40;97783.16;7363679;19;21307;-58
2022/11/08 07:28:44;;;;;;;0.00;0.00;;;;;;;12.13;68.79;97786.59;7361778;19;20030;-58
2022/11/08 07:31:09;;;;;;;0.10;0.10;;;;;;;12.13;68.43;97795.28;7361887;19;20416;-57
2022/11/08 07:33:35;;;;;;;0.00;0.00;;;;;;;12.07;68.65;97785.28;7364045;19;20021;-58
2022/11/08 07:36:01;;;;;;;0.10;0.10;;;;;;;12.11;68.59;97786.69;7364221;19;20010;-58
2022/11/08 07:38:26;;;;;;;0.10;0.10;;;;;;;12.12;68.73;97790.16;7350963;19;20021;-58
2022/11/08 07:41:00;;;;;;;0.10;0.10;;;;;;;12.16;68.28;97797.63;7360269;19;20021;-58
2022/11/08 07:43:26;;;;;;;0.00;0.00;;;;;;;12.13;68.86;97797.88;7362281;19;20041;-56
2022/11/08 07:45:54;;;;;;;0.10;0.10;;;;;;;12.14;68.53;97796.09;7359832;19;20656;-57
2022/11/08 07:48:19;;;;;;;;;;;;;;;12.16;67.64;97784.56;7362035;19;20376;-58
2022/11/08 07:50:45;;;;;;;0.00;0.00;;;;;;;12.10;67.84;97785.03;7358608;19;19914;-58
2022/11/08 07:53:11;;;;;;;0.10;0.10;;;;;;;12.12;68.36;97791.00;7360532;19;20031;-58
2022/11/08 07:55:38;;;;;;;0.03;0.03;;;;;;;12.09;68.10;97790.38;7361514;19;20086;-56
2022/11/08 07:58:04;;;;;;;0.00;0.00;;;;;;;12.00;68.47;97778.81;7364345;19;20006;-58
2022/11/08 08:00:30;;;;;;;0.00;0.00;;;;;;;12.06;68.64;97799.28;7358734;19;20090;-58
2022/11/08 08:02:57;;;;;;;0.00;0.00;;;;;;;12.06;68.24;97801.91;7346989;19;20010;-58
2022/11/08 08:05:24;;;;;;;0.00;0.00;;;;;;;12.04;68.89;97790.72;7351583;19;20021;-57
2022/11/08 08:07:49;;;;;;;0.00;0.00;;;;;;;12.00;68.76;97789.28;7354281;19;20026;-58
2022/11/08 08:10:15;;;;;;;0.10;0.10;;;;;;;12.03;68.44;97788.22;7356139;19;20022;-57
2022/11/08 08:12:40;;;;;;;0.00;0.00;;;;;;;12.02;68.33;97792.63;7355029;19;20025;-58
2022/11/08 08:15:06;;;;;;;0.10;0.10;;;;;;;11.98;68.85;97795.59;7358119;19;20071;-58
2022/11/08 08:17:31;;;;;;;0.10;0.10;;;;;;;12.00;68.55;97802.34;7355495;19;20026;-58
2022/11/08 08:19:57;;;;;;;0.00;0.00;;;;;;;11.79;68.56;97769.94;7355173;19;20764;-58
2022/11/08 08:22:22;;;;;;;0.10;0.10;;;;;;;11.99;68.48;97795.47;7356096;19;20133;-58
2022/11/08 08:24:47;;;;;;;0.03;0.03;;;;;;;11.98;68.62;97801.66;7356211;19;20592;-58
2022/11/08 08:27:13;;;;;;;0.00;0.00;;;;;;;12.01;67.99;97795.34;7352667;19;20014;-58
2022/11/08 08:29:38;;;;;;;0.00;0.00;;;;;;;12.01;68.42;97811.03;7353924;19;20068;-58
2022/11/08 08:32:04;;;;;;;0.00;0.00;;;;;;;12.02;67.93;97813.56;7353499;19;20046;-58
2022/11/08 08:34:29;;;;;;;0.00;0.00;;;;;;;12.03;68.13;97817.84;7355232;19;20048;-57
2022/11/08 08:36:55;;;;;;;0.00;0.00;;;;;;;12.04;68.31;97816.88;7353680;19;20014;-58
2022/11/08 08:39:20;;;;;;;0.00;0.00;;;;;;;12.09;68.28;97808.69;7354604;19;20666;-58
2022/11/08 08:41:45;;;;;;;0.05;0.05;;;;;;;12.10;68.34;97811.19;7350848;19;20006;-58
2022/11/08 08:44:11;;;;;;;0.10;0.10;;;;;;;12.16;68.25;97821.19;7352835;19;20010;-58
2022/11/08 08:46:36;;;;;;;0.10;0.10;;;;;;;12.22;68.16;97821.69;7353917;19;20014;-58
2022/11/08 08:49:01;;;;;;;0.10;0.10;;;;;;;12.26;67.88;97820.50;7350313;19;20022;-58
2022/11/08 08:51:27;;;;;;;0.10;0.10;;;;;;;12.34;68.38;97812.91;7350805;19;20018;-58
2022/11/08 08:53:52;;;;;;;0.00;0.00;;;;;;;12.43;68.27;97817.44;7349738;19;20018;-58
2022/11/08 08:56:18;;;;;;;0.00;0.00;;;;;;;12.54;67.93;97822.69;7352333;19;20621;-58
2022/11/08 08:58:43;;;;;;;0.00;0.00;;;;;;;12.68;68.44;97821.63;7351661;19;20014;-59
2022/11/08 09:01:08;;;;;;;0.00;0.00;;;;;;;12.70;67.76;97807.47;7349149;19;20860;-58
2022/11/08 09:03:35;;;;;;;0.00;0.00;;;;;;;12.96;67.50;97809.81;7349095;19;20015;-56
2022/11/08 09:06:01;;;;;;;0.00;0.00;;;;;;;13.26;67.19;97837.22;7352590;19;20015;-58
2022/11/08 09:08:27;;;;;;;0.00;0.00;;;;;;;13.36;66.80;97806.69;7355440;19;20600;-59
2022/11/08 09:10:57;;;;;;;0.10;0.10;;;;;;;13.71;66.86;97832.69;7353520;19;20014;-58
2022/11/08 09:13:27;;;;;;;0.00;0.00;;;;;;;13.92;66.46;97844.06;7350650;19;20024;-58
2022/11/08 09:15:53;;;;;;;0.00;0.00;;;;;;;14.16;66.23;97848.25;7353363;19;20015;-57
2022/11/08 09:18:19;;;;;;;0.00;0.00;;;;;;;14.33;65.12;97838.97;7352645;19;20018;-58
2022/11/08 09:20:45;;;;;;;0.03;0.03;;;;;;;14.53;64.79;97840.78;7353627;19;20017;-59
2022/11/08 09:23:11;;;;;;;0.08;0.08;;;;;;;14.64;64.32;97829.34;7349441;19;20011;-58
2022/11/08 09:25:37;;;;;;;0.00;0.00;;;;;;;14.89;63.34;97838.59;7342280;19;20022;-58
2022/11/08 09:28:03;;;;;;;0.10;0.10;;;;;;;15.12;64.01;97841.88;7345852;19;22351;-59
2022/11/08 09:30:28;;;;;;;0.00;0.00;;;;;;;15.26;61.62;97834.47;7346870;19;20034;-59
2022/11/08 09:32:53;;;;;;;0.00;0.00;;;;;;;15.48;63.01;97832.56;7348083;19;20010;-58
2022/11/08 09:35:20;;;;;;;0.00;0.00;;;;;;;15.61;60.89;97838.38;7346676;19;20533;-58
2022/11/08 09:37:45;;;;;;;0.10;0.10;;;;;;;15.73;60.41;97837.34;7348669;19;20014;-58
2022/11/08 09:40:22;;;;;;;0.05;0.05;;;;;;;15.90;61.36;97845.50;7343865;19;20043;-58
2022/11/08 09:42:50;;;;;;;0.00;0.00;;;;;;;16.00;59.42;97838.44;7347208;19;20607;-59
2022/11/08 09:45:27;;;;;;;0.10;0.10;;;;;;;16.19;60.97;97842.88;7346829;19;20090;-58
2022/11/08 09:48:06;;;;;;;0.10;0.10;;;;;;;16.26;61.23;97823.72;7346163;19;21381;-58
2022/11/08 09:50:37;;;;;;;0.00;0.00;;;;;;;16.48;58.83;97840.22;7347784;19;20018;-59
2022/11/08 09:53:21;;;;;;;0.00;0.00;;;;;;;16.64;58.72;97827.25;7347746;19;20018;-58
2022/11/08 09:55:55;;;;;;;0.10;0.10;;;;;;;16.76;58.26;97836.66;7346609;19;20010;-59
2022/11/08 09:58:23;;;;;;;0.03;0.03;;;;;;;16.81;57.71;97834.44;7345689;19;20667;-56
2022/11/08 10:00:49;;;;;;;0.10;0.10;;;;;;;16.88;56.21;97825.94;7350464;19;20031;-56
2022/11/08 10:03:16;;;;;;;0.00;0.00;;;;;;;16.98;56.90;97829.38;7356467;19;20015;-55
2022/11/08 10:06:04;;;;;;;0.10;0.10;;;;;;;17.16;57.69;97838.19;7349313;19;20006;-56
2022/11/08 10:08:48;;;;;;;0.10;0.10;;;;;;;17.19;57.53;97839.72;7354537;19;20009;-56
2022/11/08 10:11:30;;;;;;;0.10;0.10;;;;;;;17.14;56.22;97840.16;7356851;19;20905;-56
2022/11/08 10:14:30;;;;;;;0.10;0.10;;;;;;;17.01;57.20;97839.63;7356019;19;20584;-55
2022/11/08 10:17:24;;;;;;;0.00;0.00;;;;;;;16.86;56.24;97845.38;7254676;19;2004166;-56
2022/11/08 10:19:58;;;;;;;0.00;0.00;;;;;;;16.78;56.36;97849.72;7256264;19;2004542;-56
2022/11/08 10:22:45;;;;;;;0.08;0.08;;;;;;;16.70;56.93;97846.94;7353866;19;20804;-56
2022/11/08 10:25:23;;;;;;;0.10;0.10;;;;;;;16.70;57.16;97839.03;7356801;19;20021;-55
2022/11/08 10:27:53;;;;;;;0.00;0.00;;;;;;;16.73;56.69;97831.72;7355150;19;20023;-56
2022/11/08 10:30:20;;;;;;;0.00;0.00;;;;;;;16.88;56.17;97839.13;7356497;19;20761;-56
2022/11/08 10:32:53;;;;;;;0.10;0.10;;;;;;;17.05;57.01;97841.00;7356785;19;21768;-55
2022/11/08 10:35:25;;;;;;;0.10;0.10;;;;;;;17.21;55.58;97841.22;7356227;19;20582;-56
2022/11/08 10:37:53;;;;;;;0.00;0.00;;;;;;;17.29;55.33;97853.69;7355099;19;20007;-54
2022/11/08 10:40:37;;;;;;;0.10;0.10;;;;;;;17.54;57.35;97852.97;7355714;19;20010;-56
2022/11/08 10:43:11;;;;;;;0.05;0.05;;;;;;;17.75;56.49;97850.09;7357387;19;20033;-54
2022/11/08 10:45:36;;;;;;;0.00;0.00;;;;;;;17.88;54.98;97858.44;7355027;19;20023;-56
2022/11/08 10:48:03;;;;;;;0.00;0.00;;;;;;;18.08;55.05;97853.84;7357687;19;20156;-56
2022/11/08 10:50:43;;;;;;;0.10;0.10;;;;;;;18.42;56.61;97853.13;7353841;19;20460;-56
2022/11/08 10:53:16;;;;;;;0.03;0.03;;;;;;;18.60;54.23;97853.09;7350173;19;20542;-56
2022/11/08 10:55:48;;;;;;;0.10;0.10;;;;;;;18.85;54.94;97848.81;7348486;19;21899;-56
2022/11/08 10:58:31;;;;;;;0.10;0.10;;;;;;;19.16;54.88;97851.81;7349743;19;20002;-56
2022/11/08 11:01:14;;;;;;;0.00;0.00;;;;;;;19.42;54.38;97857.84;7349395;19;20010;-54
2022/11/08 11:03:39;;;;;;;0.08;0.08;;;;;;;19.57;50.99;97862.53;7351042;19;20014;-57
2022/11/08 11:06:19;;;;;;;0.10;0.10;;;;;;;19.73;50.68;97865.25;7353463;19;20117;-56
2022/11/08 11:08:49;;;;;;;0.10;0.10;;;;;;;19.86;51.35;97855.00;7352290;19;20630;-55
2022/11/08 11:11:36;;;;;;;0.10;0.10;;;;;;;19.87;51.92;97858.47;7351999;19;20039;-56
2022/11/08 11:14:16;;;;;;;0.00;0.00;;;;;;;19.79;52.41;97853.19;7348833;19;20471;-57
2022/11/08 11:17:02;;;;;;;0.00;0.00;;;;;;;19.58;51.68;97849.13;7353334;19;20600;-56
2022/11/08 11:19:29;;;;;;;0.00;0.00;;;;;;;19.31;50.42;97855.50;7353870;19;20817;-56
2022/11/08 11:22:06;;;;;;;0.10;0.10;;;;;;;19.16;51.31;97862.38;7354173;19;20138;-56
2022/11/08 11:24:34;;;;;;;0.10;0.10;;;;;;;18.91;50.96;97849.03;7355008;19;20034;-57
2022/11/08 11:27:03;;;;;;;0.00;0.00;;;;;;;18.73;51.10;97858.00;7355769;19;20045;-56
2022/11/08 11:29:38;;;;;;;0.10;0.10;;;;;;;18.56;51.91;97862.34;7352418;19;20022;-55
2022/11/08 11:32:31;;;;;;;0.10;0.10;;;;;;;18.31;52.79;97825.16;7352970;19;20129;-56
2022/11/08 11:35:00;;;;;;;0.10;0.10;;;;;;;18.20;51.30;97825.41;7253572;19;2004254;-56
2022/11/08 11:37:39;;;;;;;0.10;0.10;;;;;;;18.04;52.51;97838.47;7353750;19;20010;-56
2022/11/08 11:40:13;;;;;;;0.00;0.00;;;;;;;17.85;51.90;97845.56;7349673;19;20033;-56
2022/11/08 11:43:05;;;;;;;0.10;0.10;;;;;;;17.69;52.20;97840.09;7352079;19;20015;-56
2022/11/08 11:45:53;;;;;;;0.10;0.10;;;;;;;17.49;52.77;97828.84;7252375;19;2004689;-57
2022/11/08 11:48:27;;;;;;;0.10;0.10;;;;;;;17.34;52.90;97825.06;7352555;19;20082;-58
2022/11/08 11:50:53;;;;;;;0.08;0.08;;;;;;;17.23;52.94;97818.16;7352930;19;20021;-59
2022/11/08 11:53:32;;;;;;;0.10;0.10;;;;;;;17.28;53.67;97826.44;7351920;19;20015;-57
2022/11/08 11:56:04;;;;;;;0.10;0.10;;;;;;;17.29;53.13;97812.31;7350568;19;20086;-57
2022/11/08 11:58:55;;;;;;;0.00;0.00;;;;;;;17.42;53.83;97821.66;7352862;19;20724;-56
2022/11/08 12:01:48;;;;;;;0.00;0.00;;;;;;;17.49;52.64;97817.47;7253243;19;2004540;-56